createdAt,value
2018-07-20T00:00:45.640Z,21.91
2018-07-20T00:01:45.696Z,21.92
2018-07-20T00:02:45.788Z,21.92
2018-07-20T00:03:45.612Z,21.92
2018-07-20T00:04:55.708Z,21.92
2018-07-20T00:05:45.982Z,21.92
2018-07-20T00:06:45.979Z,21.92
2018-07-20T00:07:45.776Z,21.92
2018-07-20T00:08:45.834Z,21.92
2018-07-20T00:09:45.787Z,21.91
2018-07-20T00:10:45.879Z,21.91
2018-07-20T00:11:45.914Z,21.92
2018-07-20T00:12:45.767Z,21.91
2018-07-20T00:13:45.575Z,21.92
2018-07-20T00:14:45.717Z,21.91
2018-07-20T00:15:45.851Z,21.91
2018-07-20T00:16:46.464Z,21.91
2018-07-20T00:17:45.890Z,21.91
2018-07-20T00:18:45.806Z,21.91
2018-07-20T00:19:45.692Z,21.91
2018-07-20T00:20:45.763Z,21.91
2018-07-20T00:21:45.748Z,21.91
2018-07-20T00:22:45.630Z,21.91
2018-07-20T00:23:45.825Z,21.91
2018-07-20T00:24:45.649Z,21.9
2018-07-20T00:25:45.560Z,21.91
2018-07-20T00:26:45.714Z,21.91
2018-07-20T00:27:45.874Z,21.91
2018-07-20T00:28:45.588Z,21.91
2018-07-20T00:29:45.661Z,21.91
2018-07-20T00:30:45.660Z,21.91
2018-07-20T00:31:45.665Z,21.91
2018-07-20T00:32:45.682Z,21.91
2018-07-20T00:33:45.576Z,21.91
2018-07-20T00:34:45.793Z,21.91
2018-07-20T00:35:45.842Z,21.91
2018-07-20T00:36:45.630Z,21.9
2018-07-20T00:37:45.695Z,21.91
2018-07-20T00:38:45.789Z,21.91
2018-07-20T00:39:45.696Z,21.9
2018-07-20T00:40:46.019Z,21.9
2018-07-20T00:41:45.872Z,21.91
2018-07-20T00:42:45.731Z,21.9
2018-07-20T00:43:45.892Z,21.91
2018-07-20T00:44:45.662Z,21.9
2018-07-20T00:45:45.736Z,21.9
2018-07-20T00:46:45.789Z,21.9
2018-07-20T00:47:45.672Z,21.9
2018-07-20T00:48:45.692Z,21.9
2018-07-20T00:49:45.708Z,21.9
2018-07-20T00:50:45.671Z,21.91
2018-07-20T00:51:45.914Z,21.9
2018-07-20T00:52:45.843Z,21.91
2018-07-20T00:53:45.614Z,21.9
2018-07-20T00:54:45.651Z,21.9
2018-07-20T00:55:45.731Z,21.9
2018-07-20T00:56:45.763Z,21.9
2018-07-20T00:57:45.968Z,21.9
2018-07-20T00:58:45.851Z,21.9
2018-07-20T00:59:45.772Z,21.9
2018-07-20T01:00:45.606Z,21.9
2018-07-20T01:01:45.771Z,21.9
2018-07-20T01:02:45.657Z,21.9
2018-07-20T01:03:45.860Z,21.9
2018-07-20T01:04:45.730Z,21.9
2018-07-20T01:05:45.870Z,21.9
2018-07-20T01:06:45.921Z,21.9
2018-07-20T01:07:45.752Z,21.9
2018-07-20T01:08:45.645Z,21.9
2018-07-20T01:09:45.776Z,21.9
2018-07-20T01:10:45.654Z,21.9
2018-07-20T01:11:45.738Z,21.9
2018-07-20T01:12:45.850Z,21.9
2018-07-20T01:13:45.704Z,21.89
2018-07-20T01:14:45.735Z,21.9
2018-07-20T01:15:45.734Z,21.89
2018-07-20T01:16:45.933Z,21.9
2018-07-20T01:17:45.829Z,21.9
2018-07-20T01:18:45.745Z,21.89
2018-07-20T01:19:45.705Z,21.89
2018-07-20T01:20:45.714Z,21.89
2018-07-20T01:21:45.940Z,21.89
2018-07-20T01:22:45.705Z,21.9
2018-07-20T01:23:45.759Z,21.9
2018-07-20T01:24:45.773Z,21.89
2018-07-20T01:25:45.792Z,21.89
2018-07-20T01:26:45.677Z,21.89
2018-07-20T01:27:45.756Z,21.89
2018-07-20T01:28:45.682Z,21.89
2018-07-20T01:29:45.650Z,21.89
2018-07-20T01:30:45.724Z,21.89
2018-07-20T01:31:45.684Z,21.89
2018-07-20T01:32:45.761Z,21.89
2018-07-20T01:33:45.715Z,21.89
2018-07-20T01:34:45.837Z,21.89
2018-07-20T01:35:45.675Z,21.89
2018-07-20T01:36:45.777Z,21.89
2018-07-20T01:37:45.779Z,21.89
2018-07-20T01:38:45.720Z,21.89
2018-07-20T01:39:45.655Z,21.89
2018-07-20T01:40:45.554Z,21.89
2018-07-20T01:41:45.733Z,21.89
2018-07-20T01:42:45.589Z,21.89
2018-07-20T01:43:45.616Z,21.89
2018-07-20T01:44:45.840Z,21.89
2018-07-20T01:45:45.639Z,21.89
2018-07-20T01:46:45.684Z,21.89
2018-07-20T01:47:45.818Z,21.89
2018-07-20T01:48:45.710Z,21.89
2018-07-20T01:49:45.611Z,21.89
2018-07-20T01:50:45.685Z,21.89
2018-07-20T01:51:45.747Z,21.89
2018-07-20T01:52:45.666Z,21.89
2018-07-20T01:53:45.564Z,21.89
2018-07-20T01:54:45.684Z,21.89
2018-07-20T01:55:45.835Z,21.89
2018-07-20T01:56:45.717Z,21.89
2018-07-20T01:57:45.730Z,21.89
2018-07-20T01:58:45.804Z,21.89
2018-07-20T01:59:45.699Z,21.89
2018-07-20T02:00:45.676Z,21.88
2018-07-20T02:01:45.763Z,21.89
2018-07-20T02:02:46.012Z,21.88
2018-07-20T02:03:45.677Z,21.88
2018-07-20T02:04:45.716Z,21.88
2018-07-20T02:05:45.595Z,21.88
2018-07-20T02:06:46.047Z,21.88
2018-07-20T02:07:45.652Z,21.88
2018-07-20T02:08:45.763Z,21.88
2018-07-20T02:09:45.731Z,21.88
2018-07-20T02:10:45.749Z,21.89
2018-07-20T02:11:45.880Z,21.88
2018-07-20T02:12:45.686Z,21.88
2018-07-20T02:13:45.718Z,21.88
2018-07-20T02:14:45.901Z,21.88
2018-07-20T02:15:45.839Z,21.88
2018-07-20T02:16:45.860Z,21.88
2018-07-20T02:17:45.985Z,21.88
2018-07-20T02:18:45.982Z,21.88
2018-07-20T02:19:45.675Z,21.88
2018-07-20T02:20:45.697Z,21.88
2018-07-20T02:21:45.675Z,21.88
2018-07-20T02:22:45.980Z,21.88
2018-07-20T02:23:45.931Z,21.88
2018-07-20T02:24:45.758Z,21.88
2018-07-20T02:25:45.549Z,21.88
2018-07-20T02:26:45.580Z,21.88
2018-07-20T02:27:45.793Z,21.87
2018-07-20T02:28:45.804Z,21.87
2018-07-20T02:29:45.628Z,21.87
2018-07-20T02:30:45.784Z,21.87
2018-07-20T02:31:45.737Z,21.87
2018-07-20T02:32:45.686Z,21.87
2018-07-20T02:33:45.846Z,21.87
2018-07-20T02:34:45.698Z,21.87
2018-07-20T02:35:46.042Z,21.87
2018-07-20T02:36:45.783Z,21.87
2018-07-20T02:37:45.785Z,21.87
2018-07-20T02:38:45.660Z,21.87
2018-07-20T02:39:45.797Z,21.87
2018-07-20T02:40:45.993Z,21.87
2018-07-20T02:41:46.088Z,21.87
2018-07-20T02:42:45.673Z,21.87
2018-07-20T02:43:45.645Z,21.86
2018-07-20T02:44:45.669Z,21.87
2018-07-20T02:45:45.884Z,21.87
2018-07-20T02:46:45.739Z,21.86
2018-07-20T02:47:45.681Z,21.86
2018-07-20T02:48:45.759Z,21.86
2018-07-20T02:49:45.753Z,21.86
2018-07-20T02:50:45.813Z,21.87
2018-07-20T02:51:45.577Z,21.86
2018-07-20T02:52:45.669Z,21.86
2018-07-20T02:53:45.565Z,21.86
2018-07-20T02:54:45.547Z,21.86
2018-07-20T02:55:45.799Z,21.86
2018-07-20T02:56:45.834Z,21.86
2018-07-20T02:57:45.694Z,21.86
2018-07-20T02:58:45.660Z,21.86
2018-07-20T02:59:45.593Z,21.86
2018-07-20T03:00:45.560Z,21.85
2018-07-20T03:01:45.676Z,21.85
2018-07-20T03:02:45.680Z,21.85
2018-07-20T03:03:45.574Z,21.85
2018-07-20T03:04:45.597Z,21.86
2018-07-20T03:05:45.779Z,21.85
2018-07-20T03:06:45.762Z,21.85
2018-07-20T03:07:45.740Z,21.85
2018-07-20T03:08:45.788Z,21.85
2018-07-20T03:09:45.682Z,21.85
2018-07-20T03:10:45.640Z,21.85
2018-07-20T03:11:45.796Z,21.85
2018-07-20T03:12:45.969Z,21.85
2018-07-20T03:13:45.790Z,21.85
2018-07-20T03:14:45.796Z,21.85
2018-07-20T03:15:45.905Z,21.85
2018-07-20T03:16:45.744Z,21.85
2018-07-20T03:17:45.686Z,21.85
2018-07-20T03:18:45.657Z,21.85
2018-07-20T03:19:45.726Z,21.85
2018-07-20T03:20:45.891Z,21.85
2018-07-20T03:21:45.777Z,21.85
2018-07-20T03:22:45.792Z,21.85
2018-07-20T03:23:45.789Z,21.85
2018-07-20T03:24:45.674Z,21.84
2018-07-20T03:25:45.848Z,21.84
2018-07-20T03:26:45.917Z,21.85
2018-07-20T03:27:45.657Z,21.84
2018-07-20T03:28:45.573Z,21.84
2018-07-20T03:29:45.742Z,21.84
2018-07-20T03:30:45.739Z,21.84
2018-07-20T03:31:45.674Z,21.84
2018-07-20T03:32:46.355Z,21.84
2018-07-20T03:33:45.707Z,21.84
2018-07-20T03:34:45.649Z,21.84
2018-07-20T03:35:45.884Z,21.84
2018-07-20T03:36:45.732Z,21.84
2018-07-20T03:37:45.528Z,21.84
2018-07-20T03:38:45.793Z,21.84
2018-07-20T03:39:45.751Z,21.84
2018-07-20T03:40:45.774Z,21.83
2018-07-20T03:41:45.551Z,21.84
2018-07-20T03:42:45.737Z,21.83
2018-07-20T03:43:45.515Z,21.83
2018-07-20T03:44:45.669Z,21.83
2018-07-20T03:45:45.679Z,21.83
2018-07-20T03:46:45.625Z,21.83
2018-07-20T03:47:45.635Z,21.83
2018-07-20T03:48:45.679Z,21.83
2018-07-20T03:49:45.657Z,21.83
2018-07-20T03:50:45.717Z,21.83
2018-07-20T03:51:45.790Z,21.83
2018-07-20T03:52:45.703Z,21.83
2018-07-20T03:53:45.633Z,21.83
2018-07-20T03:54:45.525Z,21.83
2018-07-20T03:55:45.597Z,21.83
2018-07-20T03:56:45.760Z,21.83
2018-07-20T03:57:45.819Z,21.83
2018-07-20T03:58:45.779Z,21.83
2018-07-20T03:59:45.846Z,21.83
2018-07-20T04:00:45.685Z,21.83
2018-07-20T04:01:45.740Z,21.83
2018-07-20T04:02:45.726Z,21.83
2018-07-20T04:03:45.729Z,21.83
2018-07-20T04:04:45.579Z,21.83
2018-07-20T04:05:45.774Z,21.83
2018-07-20T04:06:45.608Z,21.83
2018-07-20T04:07:45.602Z,21.83
2018-07-20T04:08:45.757Z,21.83
2018-07-20T04:09:45.773Z,21.83
2018-07-20T04:10:45.654Z,21.83
2018-07-20T04:11:45.725Z,21.83
2018-07-20T04:12:45.605Z,21.82
2018-07-20T04:13:45.493Z,21.83
2018-07-20T04:14:45.550Z,21.82
2018-07-20T04:15:45.493Z,21.82
2018-07-20T04:16:45.705Z,21.82
2018-07-20T04:17:45.760Z,21.82
2018-07-20T04:18:45.566Z,21.82
2018-07-20T04:19:45.791Z,21.82
2018-07-20T04:20:45.757Z,21.82
2018-07-20T04:21:45.650Z,21.82
2018-07-20T04:22:45.677Z,21.82
2018-07-20T04:23:45.737Z,21.82
2018-07-20T04:24:45.856Z,21.82
2018-07-20T04:25:45.718Z,21.82
2018-07-20T04:26:45.697Z,21.82
2018-07-20T04:27:45.908Z,21.82
2018-07-20T04:28:45.576Z,21.82
2018-07-20T04:29:45.736Z,21.82
2018-07-20T04:30:45.833Z,21.82
2018-07-20T04:31:45.604Z,21.82
2018-07-20T04:32:45.878Z,21.82
2018-07-20T04:33:45.658Z,21.82
2018-07-20T04:34:45.633Z,21.82
2018-07-20T04:35:45.757Z,21.82
2018-07-20T04:36:45.885Z,21.82
2018-07-20T04:37:45.706Z,21.82
2018-07-20T04:38:45.524Z,21.82
2018-07-20T04:39:45.696Z,21.82
2018-07-20T04:40:45.651Z,21.82
2018-07-20T04:41:45.677Z,21.82
2018-07-20T04:42:45.615Z,21.82
2018-07-20T04:43:46.109Z,21.82
2018-07-20T04:44:45.689Z,21.82
2018-07-20T04:45:45.779Z,21.82
2018-07-20T04:46:45.537Z,21.81
2018-07-20T04:47:45.953Z,21.81
2018-07-20T04:48:45.620Z,21.81
2018-07-20T04:49:45.691Z,21.81
2018-07-20T04:50:45.618Z,21.81
2018-07-20T04:51:45.589Z,21.81
2018-07-20T04:52:45.754Z,21.82
2018-07-20T04:53:45.606Z,21.81
2018-07-20T04:54:45.727Z,21.82
2018-07-20T04:55:45.677Z,21.81
2018-07-20T04:56:45.810Z,21.81
2018-07-20T04:57:45.541Z,21.81
2018-07-20T04:58:45.940Z,21.81
2018-07-20T04:59:45.491Z,21.81
2018-07-20T05:00:45.580Z,21.81
2018-07-20T05:01:45.634Z,21.81
2018-07-20T05:02:45.676Z,21.82
2018-07-20T05:03:46.340Z,21.81
2018-07-20T05:04:45.900Z,21.81
2018-07-20T05:05:45.782Z,21.81
2018-07-20T05:06:45.590Z,21.82
2018-07-20T05:07:45.858Z,21.81
2018-07-20T05:08:45.776Z,21.81
2018-07-20T05:09:45.729Z,21.81
2018-07-20T05:10:45.744Z,21.81
2018-07-20T05:11:45.760Z,21.81
2018-07-20T05:12:45.627Z,21.81
2018-07-20T05:13:45.910Z,21.81
2018-07-20T05:14:45.627Z,21.82
2018-07-20T05:15:45.749Z,21.81
2018-07-20T05:16:45.665Z,21.81
2018-07-20T05:17:45.686Z,21.81
2018-07-20T05:18:45.515Z,21.81
2018-07-20T05:19:45.659Z,21.82
2018-07-20T05:20:45.706Z,21.81
2018-07-20T05:21:45.858Z,21.81
2018-07-20T05:22:45.589Z,21.82
2018-07-20T05:23:45.601Z,21.81
2018-07-20T05:24:45.730Z,21.81
2018-07-20T05:25:45.510Z,21.81
2018-07-20T05:26:45.745Z,21.81
2018-07-20T05:27:45.631Z,21.81
2018-07-20T05:28:45.663Z,21.81
2018-07-20T05:29:45.719Z,21.81
2018-07-20T05:30:45.763Z,21.81
2018-07-20T05:31:45.647Z,21.81
2018-07-20T05:32:45.571Z,21.81
2018-07-20T05:33:45.678Z,21.81
2018-07-20T05:34:45.504Z,21.81
2018-07-20T05:35:45.683Z,21.81
2018-07-20T05:36:45.572Z,21.81
2018-07-20T05:37:45.602Z,21.81
2018-07-20T05:38:45.624Z,21.81
2018-07-20T05:39:45.817Z,21.81
2018-07-20T05:40:45.765Z,21.81
2018-07-20T05:41:45.704Z,21.81
2018-07-20T05:42:45.621Z,21.81
2018-07-20T05:43:45.757Z,21.8
2018-07-20T05:44:45.608Z,21.81
2018-07-20T05:45:45.795Z,21.8
2018-07-20T05:46:45.780Z,21.81
2018-07-20T05:47:45.609Z,21.8
2018-07-20T05:48:45.614Z,21.81
2018-07-20T05:49:45.738Z,21.81
2018-07-20T05:50:45.707Z,21.81
2018-07-20T05:51:45.758Z,21.81
2018-07-20T05:52:45.749Z,21.81
2018-07-20T05:53:45.612Z,21.8
2018-07-20T05:54:45.503Z,21.81
2018-07-20T05:55:45.564Z,21.81
2018-07-20T05:56:45.680Z,21.81
2018-07-20T05:57:45.730Z,21.81
2018-07-20T05:58:45.791Z,21.8
2018-07-20T05:59:45.716Z,21.81
2018-07-20T06:00:45.644Z,21.81
2018-07-20T06:01:45.709Z,21.81
2018-07-20T06:02:45.882Z,21.8
2018-07-20T06:03:45.526Z,21.8
2018-07-20T06:04:45.681Z,21.8
2018-07-20T06:05:45.923Z,21.81
2018-07-20T06:06:45.796Z,21.81
2018-07-20T06:07:45.664Z,21.81
2018-07-20T06:08:45.601Z,21.8
2018-07-20T06:09:45.637Z,21.8
2018-07-20T06:10:45.657Z,21.8
2018-07-20T06:11:45.727Z,21.81
2018-07-20T06:12:45.733Z,21.81
2018-07-20T06:13:45.566Z,21.8
2018-07-20T06:14:45.555Z,21.81
2018-07-20T06:15:45.693Z,21.8
2018-07-20T06:16:45.716Z,21.8
2018-07-20T06:17:45.781Z,21.81
2018-07-20T06:18:45.849Z,21.8
2018-07-20T06:19:45.723Z,21.8
2018-07-20T06:20:45.707Z,21.81
2018-07-20T06:22:07.713Z,21.8
2018-07-20T06:22:45.635Z,21.81
2018-07-20T06:23:46.097Z,21.81
2018-07-20T06:24:55.655Z,21.8
2018-07-20T06:25:47.301Z,21.8
2018-07-20T06:26:45.523Z,21.8
2018-07-20T06:27:45.663Z,21.8
2018-07-20T06:28:45.663Z,21.8
2018-07-20T06:29:45.741Z,21.8
2018-07-20T06:30:45.636Z,21.8
2018-07-20T06:31:45.700Z,21.8
2018-07-20T06:32:45.634Z,21.8
2018-07-20T06:33:45.464Z,21.81
2018-07-20T06:34:45.607Z,21.81
2018-07-20T06:35:45.549Z,21.81
2018-07-20T06:36:45.733Z,21.81
2018-07-20T06:37:45.514Z,21.8
2018-07-20T06:38:45.649Z,21.81
2018-07-20T06:39:45.690Z,21.81
2018-07-20T06:40:45.924Z,21.8
2018-07-20T06:41:45.546Z,21.81
2018-07-20T06:42:45.504Z,21.81
2018-07-20T06:43:45.529Z,21.81
2018-07-20T06:44:45.797Z,21.81
2018-07-20T06:45:45.519Z,21.8
2018-07-20T06:46:45.667Z,21.81
2018-07-20T06:47:45.531Z,21.81
2018-07-20T06:48:45.666Z,21.81
2018-07-20T06:49:46.064Z,21.81
2018-07-20T06:50:45.859Z,21.81
2018-07-20T06:51:45.490Z,21.81
2018-07-20T06:52:45.794Z,21.8
2018-07-20T06:53:45.688Z,21.81
2018-07-20T06:54:45.640Z,21.81
2018-07-20T06:55:45.993Z,21.8
2018-07-20T06:56:45.760Z,21.81
2018-07-20T06:57:45.714Z,21.8
2018-07-20T06:58:45.556Z,21.81
2018-07-20T06:59:45.844Z,21.81
2018-07-20T07:00:45.552Z,21.81
2018-07-20T07:01:45.749Z,21.81
2018-07-20T07:02:45.683Z,21.81
2018-07-20T07:03:45.505Z,21.81
2018-07-20T07:04:45.709Z,21.8
2018-07-20T07:05:45.693Z,21.81
2018-07-20T07:06:45.691Z,21.8
2018-07-20T07:07:45.647Z,21.8
2018-07-20T07:08:45.659Z,21.81
2018-07-20T07:09:45.464Z,21.8
2018-07-20T07:10:45.586Z,21.8
2018-07-20T07:11:45.791Z,21.8
2018-07-20T07:12:45.561Z,21.8
2018-07-20T07:13:45.630Z,21.81
2018-07-20T07:14:46.006Z,21.8
2018-07-20T07:15:45.710Z,21.81
2018-07-20T07:16:45.695Z,21.8
2018-07-20T07:17:45.493Z,21.81
2018-07-20T07:18:45.666Z,21.8
2018-07-20T07:19:45.654Z,21.8
2018-07-20T07:20:45.765Z,21.8
2018-07-20T07:21:45.753Z,21.8
2018-07-20T07:22:45.569Z,21.8
2018-07-20T07:23:46.337Z,21.8
2018-07-20T07:24:45.662Z,21.8
2018-07-20T07:25:45.539Z,21.8
2018-07-20T07:26:45.657Z,21.8
2018-07-20T07:27:45.693Z,21.8
2018-07-20T07:28:45.721Z,21.8
2018-07-20T07:29:45.691Z,21.8
2018-07-20T07:30:45.900Z,21.8
2018-07-20T07:31:45.831Z,21.81
2018-07-20T07:32:45.792Z,21.82
2018-07-20T07:33:45.712Z,21.79
2018-07-20T07:34:45.648Z,21.8
2018-07-20T07:35:45.999Z,21.8
2018-07-20T07:36:45.476Z,21.8
2018-07-20T07:37:45.553Z,21.8
2018-07-20T07:38:45.694Z,21.8
2018-07-20T07:39:45.643Z,21.8
2018-07-20T07:40:45.657Z,21.8
2018-07-20T07:41:45.526Z,21.8
2018-07-20T07:42:45.740Z,21.81
2018-07-20T07:43:45.695Z,21.8
2018-07-20T07:44:45.658Z,21.81
2018-07-20T07:45:45.565Z,21.81
2018-07-20T07:46:45.784Z,21.8
2018-07-20T07:47:45.629Z,21.81
2018-07-20T07:48:45.719Z,21.8
2018-07-20T07:49:45.680Z,21.81
2018-07-20T07:50:45.521Z,21.81
2018-07-20T07:51:45.673Z,21.81
2018-07-20T07:52:45.646Z,21.81
2018-07-20T07:53:45.738Z,21.81
2018-07-20T07:54:46.009Z,21.8
2018-07-20T07:55:45.666Z,21.8
2018-07-20T07:56:45.603Z,21.8
2018-07-20T07:57:45.490Z,21.81
2018-07-20T07:58:45.444Z,21.81
2018-07-20T07:59:45.676Z,21.81
2018-07-20T08:00:45.665Z,21.8
2018-07-20T08:01:45.669Z,21.8
2018-07-20T08:02:45.721Z,21.8
2018-07-20T08:03:45.480Z,21.8
2018-07-20T08:04:45.494Z,21.8
2018-07-20T08:05:45.787Z,21.81
2018-07-20T08:06:45.421Z,21.8
2018-07-20T08:07:45.658Z,21.8
2018-07-20T08:08:45.564Z,21.81
2018-07-20T08:09:46.062Z,21.8
2018-07-20T08:10:45.618Z,21.8
2018-07-20T08:11:45.959Z,21.8
2018-07-20T08:12:45.603Z,21.8
2018-07-20T08:13:45.644Z,21.8
2018-07-20T08:14:45.689Z,21.8
2018-07-20T08:15:45.784Z,21.8
2018-07-20T08:16:45.535Z,21.8
2018-07-20T08:17:45.798Z,21.8
2018-07-20T08:18:45.646Z,21.8
2018-07-20T08:19:45.723Z,21.8
2018-07-20T08:20:45.864Z,21.8
2018-07-20T08:21:45.493Z,21.8
2018-07-20T08:22:46.002Z,21.8
2018-07-20T08:23:45.734Z,21.8
2018-07-20T08:24:46.194Z,21.8
2018-07-20T08:25:45.870Z,21.8
2018-07-20T08:26:45.856Z,21.8
2018-07-20T08:27:45.686Z,21.8
2018-07-20T08:28:45.507Z,21.8
2018-07-20T08:29:45.831Z,21.8
2018-07-20T08:30:45.456Z,21.8
2018-07-20T08:31:45.512Z,21.8
2018-07-20T08:32:45.646Z,21.8
2018-07-20T08:33:45.667Z,21.8
2018-07-20T08:34:45.688Z,21.8
2018-07-20T08:35:45.679Z,21.8
2018-07-20T08:36:45.794Z,21.8
2018-07-20T08:37:45.651Z,21.8
2018-07-20T08:38:45.741Z,21.8
2018-07-20T08:39:45.521Z,21.8
2018-07-20T08:40:45.709Z,21.8
2018-07-20T08:41:45.861Z,21.8
2018-07-20T08:42:45.505Z,21.8
2018-07-20T08:43:45.691Z,21.8
2018-07-20T08:44:45.600Z,21.8
2018-07-20T08:45:45.940Z,21.8
2018-07-20T08:46:45.615Z,21.8
2018-07-20T08:47:45.520Z,21.8
2018-07-20T08:48:45.712Z,21.8
2018-07-20T08:49:45.690Z,21.8
2018-07-20T08:50:45.682Z,21.8
2018-07-20T08:51:45.600Z,21.8
2018-07-20T08:52:45.653Z,21.8
2018-07-20T08:53:45.829Z,21.8
2018-07-20T08:54:45.479Z,21.8
2018-07-20T08:55:45.438Z,21.8
2018-07-20T08:56:45.658Z,21.8
2018-07-20T08:57:45.481Z,21.8
2018-07-20T08:58:45.626Z,21.8
2018-07-20T08:59:45.685Z,21.8
2018-07-20T09:00:45.853Z,21.8
2018-07-20T09:01:45.741Z,21.8
2018-07-20T09:02:45.699Z,21.8
2018-07-20T09:03:45.776Z,21.8
2018-07-20T09:04:45.831Z,21.8
2018-07-20T09:05:45.655Z,21.8
2018-07-20T09:06:55.657Z,21.8
2018-07-20T09:07:45.801Z,21.8
2018-07-20T09:08:45.482Z,21.8
2018-07-20T09:09:45.571Z,21.8
2018-07-20T09:10:45.614Z,21.8
2018-07-20T09:11:45.649Z,21.8
2018-07-20T09:12:45.606Z,21.8
2018-07-20T09:13:47.135Z,21.8
2018-07-20T09:14:45.574Z,21.8
2018-07-20T09:15:45.562Z,21.8
2018-07-20T09:16:45.737Z,21.8
2018-07-20T09:17:45.752Z,21.8
2018-07-20T09:18:45.688Z,21.8
2018-07-20T09:19:45.555Z,21.8
2018-07-20T09:20:46.732Z,21.8
2018-07-20T09:21:45.787Z,21.8
2018-07-20T09:22:45.672Z,21.8
2018-07-20T09:23:45.559Z,21.8
2018-07-20T09:24:45.519Z,21.8
2018-07-20T09:25:45.737Z,21.79
2018-07-20T09:26:45.679Z,21.8
2018-07-20T09:27:45.588Z,21.79
2018-07-20T09:28:45.527Z,21.8
2018-07-20T09:29:45.691Z,21.8
2018-07-20T09:30:45.674Z,21.8
2018-07-20T09:31:45.593Z,21.79
2018-07-20T09:32:45.707Z,21.8
2018-07-20T09:33:45.564Z,21.8
2018-07-20T09:34:45.494Z,21.8
2018-07-20T09:35:45.576Z,21.8
2018-07-20T09:36:45.617Z,21.8
2018-07-20T09:37:45.431Z,21.8
2018-07-20T09:38:45.685Z,21.8
2018-07-20T09:39:45.630Z,21.8
2018-07-20T09:40:45.600Z,21.8
2018-07-20T09:41:45.623Z,21.8
2018-07-20T09:42:45.668Z,21.8
2018-07-20T09:43:45.654Z,21.8
2018-07-20T09:44:45.781Z,21.8
2018-07-20T09:45:45.480Z,21.8
2018-07-20T09:46:45.673Z,21.8
2018-07-20T09:47:45.629Z,21.8
2018-07-20T09:48:45.442Z,21.8
2018-07-20T09:49:45.695Z,21.8
2018-07-20T09:50:45.563Z,21.8
2018-07-20T09:51:45.415Z,21.8
2018-07-20T09:52:45.830Z,21.8
2018-07-20T09:53:45.438Z,21.8
2018-07-20T09:54:45.738Z,21.8
2018-07-20T09:55:45.668Z,21.8
2018-07-20T09:56:45.785Z,21.8
2018-07-20T09:57:45.537Z,21.8
2018-07-20T09:58:45.689Z,21.8
2018-07-20T09:59:45.906Z,21.8
2018-07-20T10:00:45.623Z,21.8
2018-07-20T10:01:45.473Z,21.8
2018-07-20T10:02:45.668Z,21.8
2018-07-20T10:03:45.532Z,21.8
2018-07-20T10:04:45.669Z,21.8
2018-07-20T10:05:45.764Z,21.8
2018-07-20T10:06:45.687Z,21.8
2018-07-20T10:07:45.622Z,21.8
2018-07-20T10:08:45.657Z,21.8
2018-07-20T10:09:45.567Z,21.8
2018-07-20T10:10:45.831Z,21.8
2018-07-20T10:11:45.629Z,21.8
2018-07-20T10:12:46.201Z,21.79
2018-07-20T10:13:45.609Z,21.79
2018-07-20T10:14:45.683Z,21.8
2018-07-20T10:15:45.703Z,21.8
2018-07-20T10:16:45.847Z,21.8
2018-07-20T10:17:45.610Z,21.8
2018-07-20T10:18:55.955Z,21.8
2018-07-20T10:19:45.614Z,21.8
2018-07-20T10:20:45.685Z,21.8
2018-07-20T10:21:45.622Z,21.8
2018-07-20T10:22:45.724Z,21.8
2018-07-20T10:23:45.503Z,21.8
2018-07-20T10:24:45.640Z,21.8
2018-07-20T10:25:46.515Z,21.8
2018-07-20T10:26:45.451Z,21.8
2018-07-20T10:28:45.651Z,21.8
2018-07-20T10:29:45.391Z,21.8
2018-07-20T10:30:46.129Z,21.8
2018-07-20T10:31:45.619Z,21.8
2018-07-20T10:32:45.446Z,21.8
2018-07-20T10:33:45.665Z,21.8
2018-07-20T10:34:45.638Z,21.8
2018-07-20T10:35:45.668Z,21.8
2018-07-20T10:36:45.931Z,21.8
2018-07-20T10:37:45.730Z,21.8
2018-07-20T10:38:45.415Z,21.8
2018-07-20T10:39:45.579Z,21.8
2018-07-20T10:40:45.655Z,21.8
2018-07-20T10:41:45.497Z,21.81
2018-07-20T10:42:45.459Z,21.8
2018-07-20T10:43:45.720Z,21.8
2018-07-20T10:44:45.618Z,21.8
2018-07-20T10:45:45.613Z,21.8
2018-07-20T10:46:45.621Z,21.8
2018-07-20T10:47:45.467Z,21.8
2018-07-20T10:48:45.843Z,21.8
2018-07-20T10:49:45.517Z,21.8
2018-07-20T10:50:45.535Z,21.8
2018-07-20T10:51:45.520Z,21.8
2018-07-20T10:52:45.451Z,21.8
2018-07-20T10:53:45.488Z,21.8
2018-07-20T10:54:45.597Z,21.8
2018-07-20T10:55:45.568Z,21.8
2018-07-20T10:56:45.548Z,21.8
2018-07-20T10:57:45.537Z,21.8
2018-07-20T10:58:45.803Z,21.8
2018-07-20T10:59:45.733Z,21.8
2018-07-20T11:00:45.491Z,21.8
2018-07-20T11:01:46.131Z,21.8
2018-07-20T11:02:45.643Z,21.8
2018-07-20T11:03:45.755Z,21.8
2018-07-20T11:04:45.633Z,21.8
2018-07-20T11:05:45.427Z,21.8
2018-07-20T11:06:45.473Z,21.8
2018-07-20T11:07:45.744Z,21.8
2018-07-20T11:08:45.670Z,21.8
2018-07-20T11:09:45.484Z,21.8
2018-07-20T11:10:45.475Z,21.8
2018-07-20T11:11:45.677Z,21.8
2018-07-20T11:12:45.624Z,21.8
2018-07-20T11:13:46.111Z,21.8
2018-07-20T11:14:45.628Z,21.8
2018-07-20T11:15:45.520Z,21.77
2018-07-20T11:16:45.581Z,21.8
2018-07-20T11:17:45.705Z,21.8
2018-07-20T11:18:45.666Z,21.81
2018-07-20T11:19:45.789Z,21.8
2018-07-20T11:20:45.569Z,21.81
2018-07-20T11:21:45.877Z,21.8
2018-07-20T11:22:45.698Z,21.8
2018-07-20T11:23:45.535Z,21.81
2018-07-20T11:24:45.746Z,21.8
2018-07-20T11:25:45.765Z,21.82
2018-07-20T11:26:45.749Z,21.83
2018-07-20T11:27:45.693Z,21.83
2018-07-20T11:28:45.541Z,21.83
2018-07-20T11:29:45.772Z,21.83
2018-07-20T11:30:45.721Z,21.83
2018-07-20T11:31:45.639Z,21.83
2018-07-20T11:32:45.402Z,21.83
2018-07-20T11:33:45.504Z,21.83
2018-07-20T11:34:46.168Z,21.83
2018-07-20T11:35:45.472Z,21.82
2018-07-20T11:36:45.723Z,21.82
2018-07-20T11:37:45.611Z,21.83
2018-07-20T11:38:45.565Z,21.82
2018-07-20T11:39:45.559Z,21.82
2018-07-20T11:40:45.741Z,21.82
2018-07-20T11:41:45.406Z,21.83
2018-07-20T11:42:45.943Z,21.82
2018-07-20T11:43:45.485Z,21.82
2018-07-20T11:44:45.652Z,21.82
2018-07-20T11:45:45.547Z,21.81
2018-07-20T11:46:45.677Z,21.82
2018-07-20T11:47:45.764Z,21.81
2018-07-20T11:48:45.705Z,21.81
2018-07-20T11:49:45.480Z,21.81
2018-07-20T11:50:45.362Z,21.81
2018-07-20T11:51:45.693Z,21.81
2018-07-20T11:52:45.685Z,21.81
2018-07-20T11:53:45.446Z,21.81
2018-07-20T11:54:45.566Z,21.81
2018-07-20T11:55:45.585Z,21.81
2018-07-20T11:56:45.413Z,21.81
2018-07-20T11:57:45.455Z,21.81
2018-07-20T11:58:45.406Z,21.81
2018-07-20T12:00:07.421Z,21.81
2018-07-20T12:00:45.686Z,21.81
2018-07-20T12:01:45.733Z,21.81
2018-07-20T12:02:45.455Z,21.8
2018-07-20T12:03:45.665Z,21.81
2018-07-20T12:04:45.525Z,21.8
2018-07-20T12:05:45.494Z,21.81
2018-07-20T12:06:45.819Z,21.8
2018-07-20T12:07:45.447Z,21.8
2018-07-20T12:08:45.673Z,21.81
2018-07-20T12:09:45.450Z,21.8
2018-07-20T12:10:45.619Z,21.8
2018-07-20T12:11:45.432Z,21.8
2018-07-20T12:12:45.508Z,21.8
2018-07-20T12:13:45.714Z,21.81
2018-07-20T12:14:45.462Z,21.8
2018-07-20T12:15:45.442Z,21.8
2018-07-20T12:16:45.711Z,21.8
2018-07-20T12:17:45.732Z,21.8
2018-07-20T12:18:45.534Z,21.8
2018-07-20T12:19:45.681Z,21.8
2018-07-20T12:20:45.622Z,21.8
2018-07-20T12:21:45.701Z,21.8
2018-07-20T12:22:45.553Z,21.8
2018-07-20T12:23:45.683Z,21.8
2018-07-20T12:24:46.031Z,21.8
2018-07-20T12:25:45.755Z,21.8
2018-07-20T12:26:45.459Z,21.8
2018-07-20T12:27:45.747Z,21.8
2018-07-20T12:28:45.613Z,21.8
2018-07-20T12:29:45.726Z,21.8
2018-07-20T12:30:45.540Z,21.8
2018-07-20T12:31:45.849Z,21.8
2018-07-20T12:32:45.557Z,21.8
2018-07-20T12:33:45.673Z,21.8
2018-07-20T12:34:45.772Z,21.8
2018-07-20T12:35:45.633Z,21.8
2018-07-20T12:36:45.873Z,21.8
2018-07-20T12:37:45.858Z,21.8
2018-07-20T12:39:07.721Z,21.8
2018-07-20T12:39:45.656Z,21.8
2018-07-20T12:40:45.602Z,21.8
2018-07-20T12:41:45.415Z,21.8
2018-07-20T12:42:45.485Z,21.8
2018-07-20T12:43:45.563Z,21.8
2018-07-20T12:44:45.672Z,21.8
2018-07-20T12:45:45.777Z,21.82
2018-07-20T12:46:46.149Z,21.83
2018-07-20T12:47:45.554Z,21.85
2018-07-20T12:48:45.639Z,21.87
2018-07-20T12:49:45.467Z,21.89
2018-07-20T12:50:45.425Z,21.89
2018-07-20T12:51:45.458Z,21.9
2018-07-20T12:52:45.816Z,21.9
2018-07-20T12:53:45.396Z,21.91
2018-07-20T12:54:45.448Z,21.92
2018-07-20T12:55:45.814Z,21.92
2018-07-20T12:56:45.467Z,21.91
2018-07-20T12:57:45.394Z,21.92
2018-07-20T12:58:46.192Z,21.93
2018-07-20T12:59:45.521Z,21.93
2018-07-20T13:00:45.492Z,21.94
2018-07-20T13:01:45.765Z,21.95
2018-07-20T13:02:45.557Z,21.95
2018-07-20T13:03:45.910Z,21.95
2018-07-20T13:04:45.707Z,21.95